Redding, CA

12:15 AM PDT on August 20, 2014 (GMT -0700)
west redding | Change Station
CLOSE
Current Station
Personal Weather Station
Location: Redding, CA
Elevation: 747 ft
Nearby Weather Stations

Elev 747 ft 40.56 °N, 122.42 °W | Updated 7 minutes ago

Clear
Clear
76.2 °F
Feels Like 78 °F
N
3.0
Wind Variable Wind from West
Gusts 5.0 mph

Today
High -- | Low -- °F
--% Chance of Precip.
Yesterday
High -- | Low -- °F
Precip. -- in
6:25 AM 8:00 PM
Waning Crescent, 24% visible
Pressure 29.74 in
Visibility 10.0 miles
Clouds Clear
Heat Index 78 °F
Dew Point 54 °F
Humidity 46%
Rainfall 0.00 in
Snow Depth Not available.
UV 0 out of 12
Pollen 6.40 out of 12
Air Quality Not available.
Flu Activity Not available.
METAR KRDD 200653Z AUTO 00000KT 10SM CLR 25/13 A2976 RMK AO2 SLP071 T02500133 TSNO $

More Conditions Fewer Conditions

Pressure 29.74 in
Visibility 10.0 miles
Clouds Clear
Heat Index 78 °F
Dew Point 54 °F
Humidity 46%
Rainfall 0.00 in
Snow Depth Not available.
UV 0 out of 12
Pollen 6.40 out of 12
Air Quality Not available.
Flu Activity Not available.
METAR KRDD 200653Z AUTO 00000KT 10SM CLR 25/13 A2976 RMK AO2 SLP071 T02500133 TSNO $

More Conditions Fewer Conditions

10-Day Weather Forecast

Almanac

Astronomy

Aug. 20, 2014 Rise Set
Actual Time 6:25 AM PDT 8:00 PM PDT
Civil Twilight 5:56 AM PDT 8:28 PM PDT
Nautical Twilight 5:21 AM PDT 9:03 PM PDT
Astronomical Twilight 4:44 AM PDT 9:40 PM PDT
Moon 2:09 AM PDT 4:49 PM PDT
Length of Visible Light 14h 32m
Length of Day
13h 34m
Tomorrow will be 2m 27s shorter.
Waning Crescent, 24% of the Moon is Illuminated
Today
Waning Crescent
Aug 25
New
Sep 2
First Quarter
Sep 8
Full
Sep 15
Last Quarter

Today's Extremes

State Highs State Lows

Community

WunderPhotos

Upload Photos

1,745,592 photos uploaded!

Nearby

Snow Depth

Station Depth Elevation
Adin Mountain 0 in 6200 ft
Cedar Pass 0 in 7100 ft
CSS Lab 5 in 6900 ft
Tahoe City Cross 0 in 6750 ft
Echo Peak 1 in 7800 ft

Earthquake Activity

City Distance Mag. Time & Date
The Geysers, California 124 miles 2.6 8:55 PM PDT
2014-08-13
Rio Dell, California 88 miles 2.5 6:16 PM PDT
2014-08-13
Upper Lake, California 88 miles 2.9 3:32 PM PDT
2014-08-13
Minimum magnitude displayed is 2.5.

Coastal Water Temperatures

Place Temperature
No Stations Reporting

Nearby Weather Stations